sensor_id;sensor_type;location;lat;lon;timestamp;pressure;altitude;pressure_sealevel;temperature;humidity
61898;BME280;47850;50.274;18.908;2023-05-23T00:00:10;97830.98;;;13.23;62.07
61898;BME280;47850;50.274;18.908;2023-05-23T00:03:19;97824.17;;;13.20;62.05
61898;BME280;47850;50.274;18.908;2023-05-23T00:05:49;97821.34;;;13.17;62.00
61898;BME280;47850;50.274;18.908;2023-05-23T00:08:18;97821.09;;;13.17;61.86
61898;BME280;47850;50.274;18.908;2023-05-23T00:10:45;97816.75;;;13.16;62.01
61898;BME280;47850;50.274;18.908;2023-05-23T00:13:13;97817.27;;;13.15;61.98
61898;BME280;47850;50.274;18.908;2023-05-23T00:15:41;97818.36;;;13.14;62.13
61898;BME280;47850;50.274;18.908;2023-05-23T00:18:10;97816.92;;;13.13;62.07
61898;BME280;47850;50.274;18.908;2023-05-23T00:20:39;97815.99;;;13.13;62.32
61898;BME280;47850;50.274;18.908;2023-05-23T00:23:09;97812.97;;;13.10;62.29
61898;BME280;47850;50.274;18.908;2023-05-23T00:25:37;97812.30;;;13.05;62.21
61898;BME280;47850;50.274;18.908;2023-05-23T00:28:05;97808.04;;;12.99;62.36
61898;BME280;47850;50.274;18.908;2023-05-23T00:30:33;97807.18;;;12.94;62.59
61898;BME280;47850;50.274;18.908;2023-05-23T00:33:00;97806.39;;;12.91;63.06
61898;BME280;47850;50.274;18.908;2023-05-23T00:35:28;97803.88;;;12.88;62.90
61898;BME280;47850;50.274;18.908;2023-05-23T00:37:56;97803.16;;;12.85;62.87
61898;BME280;47850;50.274;18.908;2023-05-23T00:40:24;97806.86;;;12.81;63.06
61898;BME280;47850;50.274;18.908;2023-05-23T00:42:51;97809.45;;;12.76;63.29
61898;BME280;47850;50.274;18.908;2023-05-23T00:45:19;97805.27;;;12.74;63.37
61898;BME280;47850;50.274;18.908;2023-05-23T00:47:48;97811.19;;;12.72;63.73
61898;BME280;47850;50.274;18.908;2023-05-23T00:50:18;97808.80;;;12.68;63.94
61898;BME280;47850;50.274;18.908;2023-05-23T00:52:47;97808.36;;;12.67;64.09
61898;BME280;47850;50.274;18.908;2023-05-23T00:55:15;97808.41;;;12.65;63.84
61898;BME280;47850;50.274;18.908;2023-05-23T00:57:43;97806.06;;;12.65;63.91
61898;BME280;47850;50.274;18.908;2023-05-23T01:00:11;97805.61;;;12.63;64.07
61898;BME280;47850;50.274;18.908;2023-05-23T01:02:44;97807.75;;;12.62;64.43
61898;BME280;47850;50.274;18.908;2023-05-23T01:05:15;97811.37;;;12.60;64.24
61898;BME280;47850;50.274;18.908;2023-05-23T01:07:50;97808.50;;;12.56;64.36
61898;BME280;47850;50.274;18.908;2023-05-23T01:10:21;97806.84;;;12.53;64.62
61898;BME280;47850;50.274;18.908;2023-05-23T01:15:41;97804.36;;;12.41;65.22
61898;BME280;47850;50.274;18.908;2023-05-23T01:18:18;97803.52;;;12.37;65.49
61898;BME280;47850;50.274;18.908;2023-05-23T01:20:51;97802.45;;;12.31;65.90
61898;BME280;47850;50.274;18.908;2023-05-23T01:29:26;97800.95;;;12.21;66.80
61898;BME280;47850;50.274;18.908;2023-05-23T01:31:56;97800.02;;;12.19;66.94
61898;BME280;47850;50.274;18.908;2023-05-23T01:34:25;97798.64;;;12.14;66.95
61898;BME280;47850;50.274;18.908;2023-05-23T01:36:53;97799.19;;;12.10;67.94
61898;BME280;47850;50.274;18.908;2023-05-23T01:39:24;97798.13;;;12.07;68.01
61898;BME280;47850;50.274;18.908;2023-05-23T01:41:52;97791.98;;;12.03;67.86
61898;BME280;47850;50.274;18.908;2023-05-23T01:44:21;97791.05;;;11.98;68.45
61898;BME280;47850;50.274;18.908;2023-05-23T01:46:49;97788.73;;;11.93;68.67
61898;BME280;47850;50.274;18.908;2023-05-23T01:49:17;97793.02;;;11.88;69.15
61898;BME280;47850;50.274;18.908;2023-05-23T01:51:46;97797.73;;;11.84;69.32
61898;BME280;47850;50.274;18.908;2023-05-23T01:54:14;97802.39;;;11.79;69.41
61898;BME280;47850;50.274;18.908;2023-05-23T01:56:43;97797.71;;;11.72;69.36
61898;BME280;47850;50.274;18.908;2023-05-23T01:59:11;97797.84;;;11.68;69.71
61898;BME280;47850;50.274;18.908;2023-05-23T02:01:40;97793.73;;;11.64;70.08
61898;BME280;47850;50.274;18.908;2023-05-23T02:04:08;97792.81;;;11.60;70.21
61898;BME280;47850;50.274;18.908;2023-05-23T02:06:36;97791.16;;;11.55;70.39
61898;BME280;47850;50.274;18.908;2023-05-23T02:09:03;97785.96;;;11.50;70.76
61898;BME280;47850;50.274;18.908;2023-05-23T02:11:31;97789.16;;;11.47;70.59
61898;BME280;47850;50.274;18.908;2023-05-23T02:14:00;97787.21;;;11.43;70.45
61898;BME280;47850;50.274;18.908;2023-05-23T02:16:29;97786.67;;;11.37;70.92
61898;BME280;47850;50.274;18.908;2023-05-23T02:18:57;97787.08;;;11.32;71.27
61898;BME280;47850;50.274;18.908;2023-05-23T02:21:25;97785.30;;;11.29;71.35
61898;BME280;47850;50.274;18.908;2023-05-23T02:23:53;97787.36;;;11.25;72.18
61898;BME280;47850;50.274;18.908;2023-05-23T02:26:21;97787.88;;;11.23;72.24
61898;BME280;47850;50.274;18.908;2023-05-23T02:28:49;97789.12;;;11.21;72.71
61898;BME280;47850;50.274;18.908;2023-05-23T02:31:18;97790.19;;;11.18;72.86
61898;BME280;47850;50.274;18.908;2023-05-23T02:33:45;97786.95;;;11.17;73.09
61898;BME280;47850;50.274;18.908;2023-05-23T02:36:13;97787.27;;;11.19;73.13
61898;BME280;47850;50.274;18.908;2023-05-23T02:38:41;97788.51;;;11.18;73.09
61898;BME280;47850;50.274;18.908;2023-05-23T02:41:09;97783.48;;;11.14;72.70
61898;BME280;47850;50.274;18.908;2023-05-23T02:43:37;97781.72;;;11.10;72.78
61898;BME280;47850;50.274;18.908;2023-05-23T02:46:05;97780.61;;;11.06;72.82
61898;BME280;47850;50.274;18.908;2023-05-23T02:48:33;97779.34;;;11.03;73.34
61898;BME280;47850;50.274;18.908;2023-05-23T02:51:01;97777.92;;;11.00;73.08
61898;BME280;47850;50.274;18.908;2023-05-23T02:53:31;97777.80;;;10.98;73.25
61898;BME280;47850;50.274;18.908;2023-05-23T02:55:58;97782.29;;;10.98;73.35
61898;BME280;47850;50.274;18.908;2023-05-23T02:58:26;97780.91;;;10.99;73.60
61898;BME280;47850;50.274;18.908;2023-05-23T03:00:54;97776.52;;;11.00;73.75
61898;BME280;47850;50.274;18.908;2023-05-23T03:03:22;97778.86;;;11.00;73.62
61898;BME280;47850;50.274;18.908;2023-05-23T03:05:50;97776.39;;;10.99;73.46
61898;BME280;47850;50.274;18.908;2023-05-23T03:08:18;97776.39;;;10.99;73.25
61898;BME280;47850;50.274;18.908;2023-05-23T03:10:45;97774.95;;;11.00;73.89
61898;BME280;47850;50.274;18.908;2023-05-23T03:13:13;97772.23;;;11.03;73.44
61898;BME280;47850;50.274;18.908;2023-05-23T03:15:41;97772.20;;;11.04;73.12
61898;BME280;47850;50.274;18.908;2023-05-23T03:18:09;97774.09;;;11.04;73.21
61898;BME280;47850;50.274;18.908;2023-05-23T03:20:37;97772.23;;;11.06;73.67
61898;BME280;47850;50.274;18.908;2023-05-23T03:23:05;97768.59;;;11.09;73.66
61898;BME280;47850;50.274;18.908;2023-05-23T03:25:34;97768.77;;;11.12;73.68
61898;BME280;47850;50.274;18.908;2023-05-23T03:28:02;97765.51;;;11.13;73.61
61898;BME280;47850;50.274;18.908;2023-05-23T03:30:30;97761.73;;;11.13;73.57
61898;BME280;47850;50.274;18.908;2023-05-23T03:32:58;97760.69;;;11.15;73.81
61898;BME280;47850;50.274;18.908;2023-05-23T03:35:25;97760.84;;;11.16;73.71
61898;BME280;47850;50.274;18.908;2023-05-23T03:37:53;97757.16;;;11.18;73.41
61898;BME280;47850;50.274;18.908;2023-05-23T03:40:21;97757.42;;;11.22;73.49
61898;BME280;47850;50.274;18.908;2023-05-23T03:43:00;97759.61;;;11.24;73.52
61898;BME280;47850;50.274;18.908;2023-05-23T03:45:30;97757.06;;;11.29;73.87
61898;BME280;47850;50.274;18.908;2023-05-23T03:47:58;97753.95;;;11.33;73.61
61898;BME280;47850;50.274;18.908;2023-05-23T03:50:26;97753.11;;;11.38;73.57
61898;BME280;47850;50.274;18.908;2023-05-23T03:52:54;97755.84;;;11.41;73.46
61898;BME280;47850;50.274;18.908;2023-05-23T03:55:23;97757.31;;;11.45;73.33
61898;BME280;47850;50.274;18.908;2023-05-23T03:57:52;97757.34;;;11.47;73.87
61898;BME280;47850;50.274;18.908;2023-05-23T04:00:19;97755.77;;;11.52;73.67
61898;BME280;47850;50.274;18.908;2023-05-23T04:02:47;97758.59;;;11.57;73.61
61898;BME280;47850;50.274;18.908;2023-05-23T04:05:16;97753.89;;;11.60;73.41
61898;BME280;47850;50.274;18.908;2023-05-23T04:07:44;97753.41;;;11.64;73.48
61898;BME280;47850;50.274;18.908;2023-05-23T04:10:12;97747.41;;;11.67;73.78
61898;BME280;47850;50.274;18.908;2023-05-23T04:12:40;97750.30;;;11.72;73.70
61898;BME280;47850;50.274;18.908;2023-05-23T04:15:09;97751.54;;;11.78;73.37
61898;BME280;47850;50.274;18.908;2023-05-23T04:17:37;97753.54;;;11.84;73.04
61898;BME280;47850;50.274;18.908;2023-05-23T04:20:07;97759.61;;;11.90;73.47
61898;BME280;47850;50.274;18.908;2023-05-23T04:22:36;97761.00;;;11.96;73.48
61898;BME280;47850;50.274;18.908;2023-05-23T04:25:06;97752.27;;;12.03;73.12
61898;BME280;47850;50.274;18.908;2023-05-23T04:27:34;97752.89;;;12.10;72.85
61898;BME280;47850;50.274;18.908;2023-05-23T04:30:02;97754.70;;;12.18;72.83
61898;BME280;47850;50.274;18.908;2023-05-23T04:32:30;97752.67;;;12.25;73.01
61898;BME280;47850;50.274;18.908;2023-05-23T04:34:57;97752.42;;;12.32;72.90
61898;BME280;47850;50.274;18.908;2023-05-23T04:37:28;97749.38;;;12.39;72.65
61898;BME280;47850;50.274;18.908;2023-05-23T04:39:56;97747.20;;;12.45;72.57
61898;BME280;47850;50.274;18.908;2023-05-23T04:42:25;97749.45;;;12.52;72.50
61898;BME280;47850;50.274;18.908;2023-05-23T04:44:54;97750.31;;;12.59;72.32
61898;BME280;47850;50.274;18.908;2023-05-23T04:47:24;97745.08;;;12.67;72.17
61898;BME280;47850;50.274;18.908;2023-05-23T04:49:54;97743.27;;;12.74;71.67
61898;BME280;47850;50.274;18.908;2023-05-23T04:52:23;97744.42;;;12.82;71.19
61898;BME280;47850;50.274;18.908;2023-05-23T04:54:53;97746.30;;;12.89;70.47
61898;BME280;47850;50.274;18.908;2023-05-23T04:57:22;97744.26;;;12.97;69.86
61898;BME280;47850;50.274;18.908;2023-05-23T04:59:50;97739.36;;;13.04;69.65
61898;BME280;47850;50.274;18.908;2023-05-23T05:02:18;97738.46;;;13.11;69.39
61898;BME280;47850;50.274;18.908;2023-05-23T05:04:46;97739.71;;;13.18;69.48
61898;BME280;47850;50.274;18.908;2023-05-23T05:07:14;97744.95;;;13.27;69.18
61898;BME280;47850;50.274;18.908;2023-05-23T05:09:42;97742.51;;;13.34;69.03
61898;BME280;47850;50.274;18.908;2023-05-23T05:12:10;97740.04;;;13.43;68.83
61898;BME280;47850;50.274;18.908;2023-05-23T05:14:38;97737.34;;;13.53;68.84
61898;BME280;47850;50.274;18.908;2023-05-23T05:17:06;97735.95;;;13.63;68.51
61898;BME280;47850;50.274;18.908;2023-05-23T05:19:33;97740.83;;;13.72;67.93
61898;BME280;47850;50.274;18.908;2023-05-23T05:22:01;97735.96;;;13.81;67.39
61898;BME280;47850;50.274;18.908;2023-05-23T05:24:29;97727.98;;;13.91;67.40
61898;BME280;47850;50.274;18.908;2023-05-23T05:26:58;97725.41;;;14.00;67.16
61898;BME280;47850;50.274;18.908;2023-05-23T05:29:26;97728.63;;;14.10;66.42
61898;BME280;47850;50.274;18.908;2023-05-23T05:31:54;97726.23;;;14.21;65.99
61898;BME280;47850;50.274;18.908;2023-05-23T05:34:22;97722.27;;;14.29;65.18
61898;BME280;47850;50.274;18.908;2023-05-23T05:36:49;97723.17;;;14.37;64.66
61898;BME280;47850;50.274;18.908;2023-05-23T05:39:17;97729.67;;;14.46;64.44
61898;BME280;47850;50.274;18.908;2023-05-23T05:41:45;97730.46;;;14.57;63.98
61898;BME280;47850;50.274;18.908;2023-05-23T05:44:13;97726.76;;;14.66;63.45
61898;BME280;47850;50.274;18.908;2023-05-23T05:46:40;97727.30;;;14.76;63.27
61898;BME280;47850;50.274;18.908;2023-05-23T05:49:08;97730.02;;;14.86;62.98
61898;BME280;47850;50.274;18.908;2023-05-23T05:51:36;97727.45;;;14.93;62.82
61898;BME280;47850;50.274;18.908;2023-05-23T05:54:04;97727.96;;;14.99;62.60
61898;BME280;47850;50.274;18.908;2023-05-23T05:56:32;97729.20;;;15.06;62.56
61898;BME280;47850;50.274;18.908;2023-05-23T05:58:59;97731.30;;;15.12;62.62
61898;BME280;47850;50.274;18.908;2023-05-23T06:01:27;97730.41;;;15.14;62.32
61898;BME280;47850;50.274;18.908;2023-05-23T06:03:55;97730.29;;;15.16;62.35
61898;BME280;47850;50.274;18.908;2023-05-23T06:06:23;97732.20;;;15.18;62.00
61898;BME280;47850;50.274;18.908;2023-05-23T06:08:51;97729.16;;;15.15;61.86
61898;BME280;47850;50.274;18.908;2023-05-23T06:11:18;97726.61;;;15.13;62.09
61898;BME280;47850;50.274;18.908;2023-05-23T06:13:46;97724.29;;;15.15;62.21
61898;BME280;47850;50.274;18.908;2023-05-23T06:16:14;97725.18;;;15.20;62.23
61898;BME280;47850;50.274;18.908;2023-05-23T06:18:42;97728.06;;;15.27;62.24
61898;BME280;47850;50.274;18.908;2023-05-23T06:21:09;97722.73;;;15.31;62.03
61898;BME280;47850;50.274;18.908;2023-05-23T06:23:37;97723.25;;;15.37;62.23
61898;BME280;47850;50.274;18.908;2023-05-23T06:26:05;97722.92;;;15.45;62.37
61898;BME280;47850;50.274;18.908;2023-05-23T06:28:37;97722.93;;;15.54;62.34
61898;BME280;47850;50.274;18.908;2023-05-23T06:31:07;97717.86;;;15.64;62.23
61898;BME280;47850;50.274;18.908;2023-05-23T06:33:38;97715.52;;;15.69;61.61
61898;BME280;47850;50.274;18.908;2023-05-23T06:36:06;97717.27;;;15.74;61.78
61898;BME280;47850;50.274;18.908;2023-05-23T06:38:34;97712.80;;;15.82;61.72
61898;BME280;47850;50.274;18.908;2023-05-23T06:41:01;97712.13;;;15.93;61.74
61898;BME280;47850;50.274;18.908;2023-05-23T06:43:30;97712.45;;;16.03;61.62
61898;BME280;47850;50.274;18.908;2023-05-23T06:45:57;97708.12;;;16.11;61.39
61898;BME280;47850;50.274;18.908;2023-05-23T06:48:25;97710.89;;;16.23;61.21
61898;BME280;47850;50.274;18.908;2023-05-23T06:50:53;97708.67;;;16.36;61.08
61898;BME280;47850;50.274;18.908;2023-05-23T06:53:21;97706.27;;;16.49;60.56
61898;BME280;47850;50.274;18.908;2023-05-23T06:55:48;97706.55;;;16.63;60.39
61898;BME280;47850;50.274;18.908;2023-05-23T06:58:16;97703.14;;;16.76;60.08
61898;BME280;47850;50.274;18.908;2023-05-23T07:00:44;97702.41;;;16.92;59.80
61898;BME280;47850;50.274;18.908;2023-05-23T07:03:12;97700.77;;;17.03;59.15
61898;BME280;47850;50.274;18.908;2023-05-23T07:05:40;97698.06;;;17.14;58.99
61898;BME280;47850;50.274;18.908;2023-05-23T07:08:07;97696.67;;;17.22;58.62
61898;BME280;47850;50.274;18.908;2023-05-23T07:10:37;97695.15;;;17.33;58.70
61898;BME280;47850;50.274;18.908;2023-05-23T07:13:07;97695.84;;;17.46;58.77
61898;BME280;47850;50.274;18.908;2023-05-23T07:15:35;97692.10;;;17.58;57.93
61898;BME280;47850;50.274;18.908;2023-05-23T07:18:03;97696.64;;;17.70;57.70
61898;BME280;47850;50.274;18.908;2023-05-23T07:20:32;97693.77;;;17.83;57.80
61898;BME280;47850;50.274;18.908;2023-05-23T07:23:00;97690.12;;;17.95;57.17
61898;BME280;47850;50.274;18.908;2023-05-23T07:25:28;97689.41;;;18.03;56.58
61898;BME280;47850;50.274;18.908;2023-05-23T07:27:56;97689.23;;;18.11;56.27
61898;BME280;47850;50.274;18.908;2023-05-23T07:30:23;97687.22;;;18.24;56.08
61898;BME280;47850;50.274;18.908;2023-05-23T07:32:51;97687.02;;;18.40;55.97
61898;BME280;47850;50.274;18.908;2023-05-23T07:35:20;97685.55;;;18.56;55.78
61898;BME280;47850;50.274;18.908;2023-05-23T07:37:52;97681.85;;;18.71;54.87
61898;BME280;47850;50.274;18.908;2023-05-23T07:40:21;97679.88;;;18.84;54.42
61898;BME280;47850;50.274;18.908;2023-05-23T07:42:48;97681.55;;;18.98;53.66
61898;BME280;47850;50.274;18.908;2023-05-23T07:45:16;97678.52;;;19.08;53.07
61898;BME280;47850;50.274;18.908;2023-05-23T07:47:44;97676.89;;;19.19;52.28
61898;BME280;47850;50.274;18.908;2023-05-23T07:50:12;97677.40;;;19.26;52.04
61898;BME280;47850;50.274;18.908;2023-05-23T07:52:40;97673.08;;;19.34;52.12
61898;BME280;47850;50.274;18.908;2023-05-23T07:55:08;97669.64;;;19.44;51.91
61898;BME280;47850;50.274;18.908;2023-05-23T07:57:36;97671.09;;;19.54;52.43
61898;BME280;47850;50.274;18.908;2023-05-23T08:00:04;97672.29;;;19.63;52.36
61898;BME280;47850;50.274;18.908;2023-05-23T08:02:32;97672.52;;;19.69;51.65
61898;BME280;47850;50.274;18.908;2023-05-23T08:05:01;97673.33;;;19.68;50.91
61898;BME280;47850;50.274;18.908;2023-05-23T08:07:28;97670.95;;;19.68;50.70
61898;BME280;47850;50.274;18.908;2023-05-23T08:09:56;97665.48;;;19.69;50.70
61898;BME280;47850;50.274;18.908;2023-05-23T08:12:24;97666.69;;;19.72;50.92
61898;BME280;47850;50.274;18.908;2023-05-23T08:14:52;97666.22;;;19.74;51.08
61898;BME280;47850;50.274;18.908;2023-05-23T08:17:20;97670.73;;;19.79;51.67
61898;BME280;47850;50.274;18.908;2023-05-23T08:19:47;97670.45;;;19.85;51.35
61898;BME280;47850;50.274;18.908;2023-05-23T08:22:15;97666.27;;;19.91;50.87
61898;BME280;47850;50.274;18.908;2023-05-23T08:24:43;97666.75;;;19.98;50.60
61898;BME280;47850;50.274;18.908;2023-05-23T08:27:11;97662.88;;;20.01;49.27
61898;BME280;47850;50.274;18.908;2023-05-23T08:29:40;97662.79;;;20.05;49.50
61898;BME280;47850;50.274;18.908;2023-05-23T08:32:09;97663.20;;;20.11;48.90
61898;BME280;47850;50.274;18.908;2023-05-23T08:34:37;97662.71;;;20.19;48.45
61898;BME280;47850;50.274;18.908;2023-05-23T08:37:04;97660.89;;;20.28;48.25
61898;BME280;47850;50.274;18.908;2023-05-23T08:39:32;97661.27;;;20.37;47.57
61898;BME280;47850;50.274;18.908;2023-05-23T08:42:00;97658.50;;;20.46;47.06
61898;BME280;47850;50.274;18.908;2023-05-23T08:44:28;97657.62;;;20.52;47.07
61898;BME280;47850;50.274;18.908;2023-05-23T08:47:00;97654.67;;;20.63;47.28
61898;BME280;47850;50.274;18.908;2023-05-23T08:49:32;97657.19;;;20.71;47.00
61898;BME280;47850;50.274;18.908;2023-05-23T08:52:01;97656.15;;;20.80;45.88
61898;BME280;47850;50.274;18.908;2023-05-23T08:54:30;97658.27;;;20.91;45.15
61898;BME280;47850;50.274;18.908;2023-05-23T08:57:00;97657.70;;;20.94;45.14
61898;BME280;47850;50.274;18.908;2023-05-23T08:59:29;97656.80;;;21.00;45.86
61898;BME280;47850;50.274;18.908;2023-05-23T09:01:59;97660.70;;;21.12;45.01
61898;BME280;47850;50.274;18.908;2023-05-23T09:04:28;97660.81;;;21.22;44.99
61898;BME280;47850;50.274;18.908;2023-05-23T09:06:58;97651.18;;;21.34;44.95
61898;BME280;47850;50.274;18.908;2023-05-23T09:09:26;97654.21;;;21.45;43.95
61898;BME280;47850;50.274;18.908;2023-05-23T09:11:54;97658.52;;;21.55;44.22
61898;BME280;47850;50.274;18.908;2023-05-23T09:14:26;97659.81;;;21.66;43.85
61898;BME280;47850;50.274;18.908;2023-05-23T09:17:00;97655.86;;;21.77;43.92
61898;BME280;47850;50.274;18.908;2023-05-23T09:19:31;97658.46;;;21.91;43.78
61898;BME280;47850;50.274;18.908;2023-05-23T09:22:01;97658.86;;;22.00;42.79
61898;BME280;47850;50.274;18.908;2023-05-23T09:24:35;97659.96;;;22.11;42.46
61898;BME280;47850;50.274;18.908;2023-05-23T09:27:04;97659.95;;;22.23;41.78
61898;BME280;47850;50.274;18.908;2023-05-23T09:29:37;97659.83;;;22.29;41.88
61898;BME280;47850;50.274;18.908;2023-05-23T09:32:18;97658.80;;;22.37;42.08
61898;BME280;47850;50.274;18.908;2023-05-23T09:37:38;97655.92;;;22.65;42.05
61898;BME280;47850;50.274;18.908;2023-05-23T09:40:09;97659.38;;;22.84;41.07
61898;BME280;47850;50.274;18.908;2023-05-23T09:42:42;97655.88;;;22.98;40.85
61898;BME280;47850;50.274;18.908;2023-05-23T09:45:12;97656.94;;;23.17;41.04
61898;BME280;47850;50.274;18.908;2023-05-23T09:47:50;97657.54;;;23.33;40.33
61898;BME280;47850;50.274;18.908;2023-05-23T09:50:19;97659.59;;;23.40;39.72
61898;BME280;47850;50.274;18.908;2023-05-23T09:52:47;97657.69;;;23.39;39.07
61898;BME280;47850;50.274;18.908;2023-05-23T09:55:16;97655.15;;;23.46;39.21
61898;BME280;47850;50.274;18.908;2023-05-23T09:57:44;97651.62;;;23.59;38.47
61898;BME280;47850;50.274;18.908;2023-05-23T10:00:15;97647.67;;;23.73;38.92
61898;BME280;47850;50.274;18.908;2023-05-23T10:05:33;97638.20;;;24.06;37.61
61898;BME280;47850;50.274;18.908;2023-05-23T10:08:07;97631.28;;;24.20;37.48
61898;BME280;47850;50.274;18.908;2023-05-23T10:13:26;97631.88;;;24.49;38.02
61898;BME280;47850;50.274;18.908;2023-05-23T10:15:58;97627.18;;;24.58;37.91
61898;BME280;47850;50.274;18.908;2023-05-23T10:18:33;97623.81;;;24.77;37.97
61898;BME280;47850;50.274;18.908;2023-05-23T10:21:12;97619.09;;;24.90;37.27
61898;BME280;47850;50.274;18.908;2023-05-23T10:23:42;97622.92;;;24.98;36.58
61898;BME280;47850;50.274;18.908;2023-05-23T10:26:11;97619.02;;;25.01;36.80
61898;BME280;47850;50.274;18.908;2023-05-23T10:28:40;97616.88;;;25.13;37.01
61898;BME280;47850;50.274;18.908;2023-05-23T10:31:09;97609.49;;;25.33;36.43
61898;BME280;47850;50.274;18.908;2023-05-23T10:33:39;97609.01;;;25.57;36.54
61898;BME280;47850;50.274;18.908;2023-05-23T10:36:39;97606.68;;;25.74;35.54
61898;BME280;47850;50.274;18.908;2023-05-23T10:39:21;97606.59;;;25.94;35.65
61898;BME280;47850;50.274;18.908;2023-05-23T10:41:59;97605.40;;;26.21;36.02
61898;BME280;47850;50.274;18.908;2023-05-23T10:44:29;97607.19;;;26.53;35.72
61898;BME280;47850;50.274;18.908;2023-05-23T10:46:59;97608.80;;;26.80;34.84
61898;BME280;47850;50.274;18.908;2023-05-23T10:49:44;97610.05;;;26.95;34.35
61898;BME280;47850;50.274;18.908;2023-05-23T10:52:15;97611.39;;;27.08;34.31
61898;BME280;47850;50.274;18.908;2023-05-23T10:54:49;97607.88;;;27.29;33.98
61898;BME280;47850;50.274;18.908;2023-05-23T10:57:19;97604.84;;;27.48;33.89
61898;BME280;47850;50.274;18.908;2023-05-23T10:59:51;97607.40;;;27.58;33.47
61898;BME280;47850;50.274;18.908;2023-05-23T11:02:25;97605.70;;;27.43;33.03
61898;BME280;47850;50.274;18.908;2023-05-23T11:05:22;97609.47;;;27.29;33.00
61898;BME280;47850;50.274;18.908;2023-05-23T11:10:59;97601.40;;;27.23;32.82
61898;BME280;47850;50.274;18.908;2023-05-23T11:16:40;97590.08;;;27.70;33.40
61898;BME280;47850;50.274;18.908;2023-05-23T11:21:48;97578.01;;;28.62;32.81
61898;BME280;47850;50.274;18.908;2023-05-23T11:24:16;97577.14;;;29.04;32.35
61898;BME280;47850;50.274;18.908;2023-05-23T11:26:52;97573.52;;;29.46;31.86
61898;BME280;47850;50.274;18.908;2023-05-23T11:29:21;97572.20;;;30.02;31.20
61898;BME280;47850;50.274;18.908;2023-05-23T11:31:49;97571.08;;;30.34;30.46
61898;BME280;47850;50.274;18.908;2023-05-23T11:34:17;97570.00;;;30.59;29.65
61898;BME280;47850;50.274;18.908;2023-05-23T11:36:45;97567.08;;;30.74;29.25
61898;BME280;47850;50.274;18.908;2023-05-23T11:39:13;97565.16;;;30.69;28.95
61898;BME280;47850;50.274;18.908;2023-05-23T11:41:42;97559.68;;;30.54;28.91
61898;BME280;47850;50.274;18.908;2023-05-23T11:44:11;97562.86;;;30.23;29.47
61898;BME280;47850;50.274;18.908;2023-05-23T11:46:39;97557.63;;;29.92;29.67
61898;BME280;47850;50.274;18.908;2023-05-23T11:49:10;97561.02;;;29.74;29.97
61898;BME280;47850;50.274;18.908;2023-05-23T11:51:39;97561.61;;;29.47;30.75
61898;BME280;47850;50.274;18.908;2023-05-23T11:54:07;97560.95;;;29.08;30.81
61898;BME280;47850;50.274;18.908;2023-05-23T11:56:39;97567.81;;;28.58;30.95
61898;BME280;47850;50.274;18.908;2023-05-23T11:59:08;97562.64;;;28.23;31.99
61898;BME280;47850;50.274;18.908;2023-05-23T12:01:35;97563.41;;;27.89;32.15
61898;BME280;47850;50.274;18.908;2023-05-23T12:04:08;97567.83;;;27.39;32.72
61898;BME280;47850;50.274;18.908;2023-05-23T12:06:39;97568.12;;;26.80;34.11
61898;BME280;47850;50.274;18.908;2023-05-23T12:09:10;97587.37;;;26.35;34.79
61898;BME280;47850;50.274;18.908;2023-05-23T12:11:40;97593.30;;;25.76;35.64
61898;BME280;47850;50.274;18.908;2023-05-23T12:14:11;97605.42;;;24.95;36.54
61898;BME280;47850;50.274;18.908;2023-05-23T12:16:43;97619.51;;;24.15;37.99
61898;BME280;47850;50.274;18.908;2023-05-23T12:19:13;97623.72;;;23.34;41.56
61898;BME280;47850;50.274;18.908;2023-05-23T12:21:43;97631.08;;;22.55;43.95
61898;BME280;47850;50.274;18.908;2023-05-23T12:24:19;97630.36;;;21.83;47.09
61898;BME280;47850;50.274;18.908;2023-05-23T12:26:57;97643.86;;;21.22;50.17
61898;BME280;47850;50.274;18.908;2023-05-23T12:29:33;97655.15;;;20.61;54.83
61898;BME280;47850;50.274;18.908;2023-05-23T12:32:03;97653.14;;;20.10;58.69
61898;BME280;47850;50.274;18.908;2023-05-23T12:34:42;97647.63;;;19.61;62.67
61898;BME280;47850;50.274;18.908;2023-05-23T12:37:11;97647.75;;;19.14;63.98
61898;BME280;47850;50.274;18.908;2023-05-23T12:39:42;97649.45;;;18.76;65.25
61898;BME280;47850;50.274;18.908;2023-05-23T12:42:11;97649.69;;;18.48;66.39
61898;BME280;47850;50.274;18.908;2023-05-23T12:44:40;97650.94;;;18.23;67.75
61898;BME280;47850;50.274;18.908;2023-05-23T12:47:10;97647.65;;;17.98;68.82
61898;BME280;47850;50.274;18.908;2023-05-23T12:49:38;97641.58;;;17.80;70.68
61898;BME280;47850;50.274;18.908;2023-05-23T12:52:06;97634.83;;;17.65;72.95
61898;BME280;47850;50.274;18.908;2023-05-23T12:54:33;97632.65;;;17.51;75.05
61898;BME280;47850;50.274;18.908;2023-05-23T12:57:01;97629.46;;;17.39;75.89
61898;BME280;47850;50.274;18.908;2023-05-23T12:59:29;97625.93;;;17.32;75.80
61898;BME280;47850;50.274;18.908;2023-05-23T13:01:57;97626.31;;;17.32;75.41
61898;BME280;47850;50.274;18.908;2023-05-23T13:04:27;97622.34;;;17.35;75.36
61898;BME280;47850;50.274;18.908;2023-05-23T13:06:55;97619.13;;;17.45;74.68
61898;BME280;47850;50.274;18.908;2023-05-23T13:09:23;97612.32;;;17.58;74.69
61898;BME280;47850;50.274;18.908;2023-05-23T13:11:51;97612.35;;;17.70;73.81
61898;BME280;47850;50.274;18.908;2023-05-23T13:14:19;97606.70;;;17.82;73.79
61898;BME280;47850;50.274;18.908;2023-05-23T13:16:47;97607.33;;;17.92;73.47
61898;BME280;47850;50.274;18.908;2023-05-23T13:19:15;97609.32;;;18.01;72.73
61898;BME280;47850;50.274;18.908;2023-05-23T13:21:54;97609.89;;;18.15;72.58
61898;BME280;47850;50.274;18.908;2023-05-23T13:24:22;97604.08;;;18.31;72.23
61898;BME280;47850;50.274;18.908;2023-05-23T13:26:50;97603.45;;;18.45;71.37